sensor_id;sensor_type;location;lat;lon;timestamp;temperature;humidity
67358;HTU21D;54240;51.096;5.878;2023-02-15T00:01:36;3.33;-6.00
67358;HTU21D;54240;51.096;5.878;2023-02-15T00:04:04;3.30;-6.00
67358;HTU21D;54240;51.096;5.878;2023-02-15T00:06:31;3.30;-6.00
67358;HTU21D;54240;51.096;5.878;2023-02-15T00:08:57;3.29;-6.00
67358;HTU21D;54240;51.096;5.878;2023-02-15T00:11:23;3.27;-6.00
67358;HTU21D;54240;51.096;5.878;2023-02-15T00:14:17;3.25;-6.00
67358;HTU21D;54240;51.096;5.878;2023-02-15T00:16:44;3.25;-6.00
67358;HTU21D;54240;51.096;5.878;2023-02-15T00:19:11;3.24;-6.00
67358;HTU21D;54240;51.096;5.878;2023-02-15T00:21:39;3.25;-6.00
67358;HTU21D;54240;51.096;5.878;2023-02-15T00:24:07;3.21;-6.00
67358;HTU21D;54240;51.096;5.878;2023-02-15T00:26:34;3.19;-6.00
67358;HTU21D;54240;51.096;5.878;2023-02-15T00:29:01;3.19;-6.00
67358;HTU21D;54240;51.096;5.878;2023-02-15T00:31:30;3.19;-6.00
67358;HTU21D;54240;51.096;5.878;2023-02-15T00:34:06;3.19;-6.00
67358;HTU21D;54240;51.096;5.878;2023-02-15T00:36:32;3.18;-6.00
67358;HTU21D;54240;51.096;5.878;2023-02-15T00:38:58;3.18;-6.00
67358;HTU21D;54240;51.096;5.878;2023-02-15T00:41:25;3.20;-6.00
67358;HTU21D;54240;51.096;5.878;2023-02-15T00:43:50;3.19;-6.00
67358;HTU21D;54240;51.096;5.878;2023-02-15T00:46:16;3.19;-4.17
67358;HTU21D;54240;51.096;5.878;2023-02-15T00:48:42;3.20;-6.00
67358;HTU21D;54240;51.096;5.878;2023-02-15T00:51:08;3.17;-6.00
67358;HTU21D;54240;51.096;5.878;2023-02-15T00:53:34;3.18;-2.13
67358;HTU21D;54240;51.096;5.878;2023-02-15T00:56:00;3.20;0.39
67358;HTU21D;54240;51.096;5.878;2023-02-15T00:58:26;3.21;4.96
67358;HTU21D;54240;51.096;5.878;2023-02-15T01:00:52;3.21;4.11
67358;HTU21D;54240;51.096;5.878;2023-02-15T01:03:20;3.21;-1.72
67358;HTU21D;54240;51.096;5.878;2023-02-15T01:05:48;3.19;-1.03
67358;HTU21D;54240;51.096;5.878;2023-02-15T01:08:15;3.18;4.23
67358;HTU21D;54240;51.096;5.878;2023-02-15T01:10:41;3.18;2.54
67358;HTU21D;54240;51.096;5.878;2023-02-15T01:13:09;3.15;0.66
67358;HTU21D;54240;51.096;5.878;2023-02-15T01:15:35;3.13;-2.93
67358;HTU21D;54240;51.096;5.878;2023-02-15T01:18:01;3.12;-3.01
67358;HTU21D;54240;51.096;5.878;2023-02-15T01:20:29;3.09;-2.51
67358;HTU21D;54240;51.096;5.878;2023-02-15T01:22:58;3.06;-2.54
67358;HTU21D;54240;51.096;5.878;2023-02-15T01:25:24;3.04;-2.63
67358;HTU21D;54240;51.096;5.878;2023-02-15T01:27:50;3.02;0.34
67358;HTU21D;54240;51.096;5.878;2023-02-15T01:30:17;2.99;2.61
67358;HTU21D;54240;51.096;5.878;2023-02-15T01:32:43;2.98;7.15
67358;HTU21D;54240;51.096;5.878;2023-02-15T01:35:10;2.95;9.51
67358;HTU21D;54240;51.096;5.878;2023-02-15T01:37:36;2.90;11.32
67358;HTU21D;54240;51.096;5.878;2023-02-15T01:40:07;2.88;17.84
67358;HTU21D;54240;51.096;5.878;2023-02-15T01:42:33;2.84;18.19
67358;HTU21D;54240;51.096;5.878;2023-02-15T01:45:14;2.81;17.24
67358;HTU21D;54240;51.096;5.878;2023-02-15T01:47:54;2.74;20.88
67358;HTU21D;54240;51.096;5.878;2023-02-15T01:50:33;2.72;29.99
67358;HTU21D;54240;51.096;5.878;2023-02-15T01:53:08;2.69;36.93
67358;HTU21D;54240;51.096;5.878;2023-02-15T01:55:50;2.65;39.73
67358;HTU21D;54240;51.096;5.878;2023-02-15T01:58:19;2.58;41.62
67358;HTU21D;54240;51.096;5.878;2023-02-15T02:00:45;2.54;42.68
67358;HTU21D;54240;51.096;5.878;2023-02-15T02:03:12;2.50;48.25
67358;HTU21D;54240;51.096;5.878;2023-02-15T02:05:39;2.46;50.73
67358;HTU21D;54240;51.096;5.878;2023-02-15T02:08:07;2.43;51.22
67358;HTU21D;54240;51.096;5.878;2023-02-15T02:10:36;2.40;52.72
67358;HTU21D;54240;51.096;5.878;2023-02-15T02:13:05;2.37;57.54
67358;HTU21D;54240;51.096;5.878;2023-02-15T02:15:50;2.36;63.78
67358;HTU21D;54240;51.096;5.878;2023-02-15T02:24:34;2.32;59.25
67358;HTU21D;54240;51.096;5.878;2023-02-15T02:27:18;2.32;55.19
67358;HTU21D;54240;51.096;5.878;2023-02-15T02:38:13;2.17;30.03
67358;HTU21D;54240;51.096;5.878;2023-02-15T02:43:52;2.10;44.16
67358;HTU21D;54240;51.096;5.878;2023-02-15T02:46:40;2.08;56.31
67358;HTU21D;54240;51.096;5.878;2023-02-15T02:49:09;2.07;63.69
67358;HTU21D;54240;51.096;5.878;2023-02-15T02:51:35;2.06;71.89
67358;HTU21D;54240;51.096;5.878;2023-02-15T02:54:05;2.05;76.95
67358;HTU21D;54240;51.096;5.878;2023-02-15T02:56:47;2.05;78.95
67358;HTU21D;54240;51.096;5.878;2023-02-15T02:59:32;2.02;78.11
67358;HTU21D;54240;51.096;5.878;2023-02-15T03:02:07;2.01;75.48
67358;HTU21D;54240;51.096;5.878;2023-02-15T03:04:44;1.99;77.84
67358;HTU21D;54240;51.096;5.878;2023-02-15T03:07:16;1.99;78.22
67358;HTU21D;54240;51.096;5.878;2023-02-15T03:09:51;1.99;76.97
67358;HTU21D;54240;51.096;5.878;2023-02-15T03:12:38;1.99;77.29
67358;HTU21D;54240;51.096;5.878;2023-02-15T03:15:19;2.00;76.82
67358;HTU21D;54240;51.096;5.878;2023-02-15T03:17:55;1.98;75.62
67358;HTU21D;54240;51.096;5.878;2023-02-15T03:20:36;1.99;73.19
67358;HTU21D;54240;51.096;5.878;2023-02-15T03:23:24;2.00;71.87
67358;HTU21D;54240;51.096;5.878;2023-02-15T03:26:00;1.99;67.41
67358;HTU21D;54240;51.096;5.878;2023-02-15T03:28:35;1.99;65.92
67358;HTU21D;54240;51.096;5.878;2023-02-15T03:31:05;1.98;62.43
67358;HTU21D;54240;51.096;5.878;2023-02-15T03:33:35;1.97;61.64
67358;HTU21D;54240;51.096;5.878;2023-02-15T03:36:28;1.95;62.47
67358;HTU21D;54240;51.096;5.878;2023-02-15T03:41:39;1.93;61.68
67358;HTU21D;54240;51.096;5.878;2023-02-15T03:44:27;1.88;58.20
67358;HTU21D;54240;51.096;5.878;2023-02-15T03:47:13;1.86;58.10
67358;HTU21D;54240;51.096;5.878;2023-02-15T03:52:15;1.81;66.80
67358;HTU21D;54240;51.096;5.878;2023-02-15T03:54:43;1.82;71.45
67358;HTU21D;54240;51.096;5.878;2023-02-15T03:57:27;1.78;74.18
67358;HTU21D;54240;51.096;5.878;2023-02-15T04:00:22;1.76;75.71
67358;HTU21D;54240;51.096;5.878;2023-02-15T04:05:38;1.69;78.78
67358;HTU21D;54240;51.096;5.878;2023-02-15T04:08:05;1.67;79.90
67358;HTU21D;54240;51.096;5.878;2023-02-15T04:10:31;1.65;85.42
67358;HTU21D;54240;51.096;5.878;2023-02-15T04:13:16;1.63;86.45
67358;HTU21D;54240;51.096;5.878;2023-02-15T04:15:42;1.63;88.79
67358;HTU21D;54240;51.096;5.878;2023-02-15T04:18:26;1.62;92.12
67358;HTU21D;54240;51.096;5.878;2023-02-15T04:21:11;1.61;94.83
67358;HTU21D;54240;51.096;5.878;2023-02-15T04:23:55;1.62;95.99
67358;HTU21D;54240;51.096;5.878;2023-02-15T04:26:40;1.60;93.04
67358;HTU21D;54240;51.096;5.878;2023-02-15T04:29:05;1.56;91.70
67358;HTU21D;54240;51.096;5.878;2023-02-15T04:31:31;1.55;91.37
67358;HTU21D;54240;51.096;5.878;2023-02-15T04:33:57;1.48;92.60
67358;HTU21D;54240;51.096;5.878;2023-02-15T04:36:23;1.47;95.23
67358;HTU21D;54240;51.096;5.878;2023-02-15T04:38:49;1.46;98.65
67358;HTU21D;54240;51.096;5.878;2023-02-15T04:41:15;1.43;102.37
67358;HTU21D;54240;51.096;5.878;2023-02-15T04:43:40;1.43;101.86
67358;HTU21D;54240;51.096;5.878;2023-02-15T04:46:06;1.41;104.86
67358;HTU21D;54240;51.096;5.878;2023-02-15T04:48:32;1.41;106.62
67358;HTU21D;54240;51.096;5.878;2023-02-15T04:50:58;1.41;106.85
67358;HTU21D;54240;51.096;5.878;2023-02-15T04:53:24;1.41;103.48
67358;HTU21D;54240;51.096;5.878;2023-02-15T04:55:49;1.41;100.90
67358;HTU21D;54240;51.096;5.878;2023-02-15T04:58:16;1.37;99.82
67358;HTU21D;54240;51.096;5.878;2023-02-15T05:00:41;1.37;96.82
67358;HTU21D;54240;51.096;5.878;2023-02-15T05:03:07;1.36;97.07
67358;HTU21D;54240;51.096;5.878;2023-02-15T05:05:33;1.37;97.11
67358;HTU21D;54240;51.096;5.878;2023-02-15T05:07:59;1.35;94.12
67358;HTU21D;54240;51.096;5.878;2023-02-15T05:10:25;1.34;92.77
67358;HTU21D;54240;51.096;5.878;2023-02-15T05:12:50;1.34;91.45
67358;HTU21D;54240;51.096;5.878;2023-02-15T05:15:16;1.29;94.09
67358;HTU21D;54240;51.096;5.878;2023-02-15T05:17:42;1.31;95.79
67358;HTU21D;54240;51.096;5.878;2023-02-15T05:20:08;1.32;97.68
67358;HTU21D;54240;51.096;5.878;2023-02-15T05:22:35;1.31;99.61
67358;HTU21D;54240;51.096;5.878;2023-02-15T05:25:01;1.31;100.50
67358;HTU21D;54240;51.096;5.878;2023-02-15T05:27:45;1.31;101.86
67358;HTU21D;54240;51.096;5.878;2023-02-15T05:30:30;1.29;104.77
67358;HTU21D;54240;51.096;5.878;2023-02-15T05:32:56;1.31;103.69
67358;HTU21D;54240;51.096;5.878;2023-02-15T05:35:21;1.31;103.33
67358;HTU21D;54240;51.096;5.878;2023-02-15T05:37:47;1.28;101.64
67358;HTU21D;54240;51.096;5.878;2023-02-15T05:40:13;1.27;99.16
67358;HTU21D;54240;51.096;5.878;2023-02-15T05:42:39;1.25;95.61
67358;HTU21D;54240;51.096;5.878;2023-02-15T05:45:05;1.23;92.24
67358;HTU21D;54240;51.096;5.878;2023-02-15T05:47:31;1.22;88.30
67358;HTU21D;54240;51.096;5.878;2023-02-15T05:49:57;1.18;81.75
67358;HTU21D;54240;51.096;5.878;2023-02-15T05:52:23;1.14;73.80
67358;HTU21D;54240;51.096;5.878;2023-02-15T05:54:49;1.11;73.92
67358;HTU21D;54240;51.096;5.878;2023-02-15T05:57:15;1.09;74.48
67358;HTU21D;54240;51.096;5.878;2023-02-15T05:59:41;1.08;72.20
67358;HTU21D;54240;51.096;5.878;2023-02-15T06:02:06;1.06;68.94
67358;HTU21D;54240;51.096;5.878;2023-02-15T06:04:32;1.04;69.00
67358;HTU21D;54240;51.096;5.878;2023-02-15T06:06:58;1.04;69.94
67358;HTU21D;54240;51.096;5.878;2023-02-15T06:09:24;1.02;67.34
67358;HTU21D;54240;51.096;5.878;2023-02-15T06:11:50;1.01;63.60
67358;HTU21D;54240;51.096;5.878;2023-02-15T06:14:16;0.98;60.30
67358;HTU21D;54240;51.096;5.878;2023-02-15T06:16:42;0.96;57.25
67358;HTU21D;54240;51.096;5.878;2023-02-15T06:19:07;0.93;53.22
67358;HTU21D;54240;51.096;5.878;2023-02-15T06:21:33;0.91;54.75
67358;HTU21D;54240;51.096;5.878;2023-02-15T06:23:59;0.89;57.79
67358;HTU21D;54240;51.096;5.878;2023-02-15T06:26:25;0.86;55.06
67358;HTU21D;54240;51.096;5.878;2023-02-15T06:28:51;0.81;54.19
67358;HTU21D;54240;51.096;5.878;2023-02-15T06:31:17;0.77;58.25
67358;HTU21D;54240;51.096;5.878;2023-02-15T06:33:43;0.75;66.95
67358;HTU21D;54240;51.096;5.878;2023-02-15T06:36:09;0.74;74.06
67358;HTU21D;54240;51.096;5.878;2023-02-15T06:38:35;0.71;80.13
67358;HTU21D;54240;51.096;5.878;2023-02-15T06:41:00;0.72;88.73
67358;HTU21D;54240;51.096;5.878;2023-02-15T06:43:26;0.76;93.71
67358;HTU21D;54240;51.096;5.878;2023-02-15T06:45:52;0.76;101.56
67358;HTU21D;54240;51.096;5.878;2023-02-15T06:48:18;0.78;104.85
67358;HTU21D;54240;51.096;5.878;2023-02-15T06:50:44;0.81;105.73
67358;HTU21D;54240;51.096;5.878;2023-02-15T06:53:09;0.83;107.62
67358;HTU21D;54240;51.096;5.878;2023-02-15T06:55:35;0.83;108.02
67358;HTU21D;54240;51.096;5.878;2023-02-15T06:58:01;0.81;106.01
67358;HTU21D;54240;51.096;5.878;2023-02-15T07:00:27;0.87;107.12
67358;HTU21D;54240;51.096;5.878;2023-02-15T07:02:58;0.91;112.13
67358;HTU21D;54240;51.096;5.878;2023-02-15T07:05:25;0.94;112.07
67358;HTU21D;54240;51.096;5.878;2023-02-15T07:07:57;0.96;106.68
67358;HTU21D;54240;51.096;5.878;2023-02-15T07:10:23;0.96;98.52
67358;HTU21D;54240;51.096;5.878;2023-02-15T07:12:49;0.98;93.63
67358;HTU21D;54240;51.096;5.878;2023-02-15T07:15:17;1.03;92.19
67358;HTU21D;54240;51.096;5.878;2023-02-15T07:17:47;1.08;90.61
67358;HTU21D;54240;51.096;5.878;2023-02-15T07:20:17;1.17;85.16
67358;HTU21D;54240;51.096;5.878;2023-02-15T07:22:43;1.26;78.94
67358;HTU21D;54240;51.096;5.878;2023-02-15T07:25:10;1.43;88.01
67358;HTU21D;54240;51.096;5.878;2023-02-15T07:27:37;1.68;102.44
67358;HTU21D;54240;51.096;5.878;2023-02-15T07:30:05;1.97;105.27
67358;HTU21D;54240;51.096;5.878;2023-02-15T07:32:32;2.25;94.97
67358;HTU21D;54240;51.096;5.878;2023-02-15T07:34:58;2.51;69.10
67358;HTU21D;54240;51.096;5.878;2023-02-15T07:37:25;2.76;28.00
67358;HTU21D;54240;51.096;5.878;2023-02-15T07:39:51;3.02;-6.00
67358;HTU21D;54240;51.096;5.878;2023-02-15T07:42:17;3.25;-6.00
67358;HTU21D;54240;51.096;5.878;2023-02-15T07:44:46;3.46;-6.00
67358;HTU21D;54240;51.096;5.878;2023-02-15T07:47:12;3.72;-6.00
67358;HTU21D;54240;51.096;5.878;2023-02-15T07:49:38;3.95;-6.00
67358;HTU21D;54240;51.096;5.878;2023-02-15T07:52:04;4.19;-6.00
67358;HTU21D;54240;51.096;5.878;2023-02-15T07:54:30;4.45;-6.00
67358;HTU21D;54240;51.096;5.878;2023-02-15T07:56:56;4.75;-6.00
67358;HTU21D;54240;51.096;5.878;2023-02-15T07:59:21;5.07;-6.00
67358;HTU21D;54240;51.096;5.878;2023-02-15T08:01:47;5.36;-6.00
67358;HTU21D;54240;51.096;5.878;2023-02-15T08:04:13;5.62;-6.00
67358;HTU21D;54240;51.096;5.878;2023-02-15T08:06:39;5.81;-6.00
67358;HTU21D;54240;51.096;5.878;2023-02-15T08:09:07;6.08;-6.00
67358;HTU21D;54240;51.096;5.878;2023-02-15T08:11:36;6.46;-6.00
67358;HTU21D;54240;51.096;5.878;2023-02-15T08:14:14;6.86;-6.00
67358;HTU21D;54240;51.096;5.878;2023-02-15T08:16:48;7.10;-6.00
67358;HTU21D;54240;51.096;5.878;2023-02-15T08:19:30;7.31;-6.00
67358;HTU21D;54240;51.096;5.878;2023-02-15T08:22:03;7.35;-6.00
67358;HTU21D;54240;51.096;5.878;2023-02-15T08:24:32;7.30;-6.00
67358;HTU21D;54240;51.096;5.878;2023-02-15T08:26:59;7.26;-6.00
67358;HTU21D;54240;51.096;5.878;2023-02-15T08:29:27;7.35;-6.00
67358;HTU21D;54240;51.096;5.878;2023-02-15T08:31:57;7.41;-6.00
67358;HTU21D;54240;51.096;5.878;2023-02-15T08:34:24;7.34;-6.00
67358;HTU21D;54240;51.096;5.878;2023-02-15T08:36:50;7.29;-6.00
67358;HTU21D;54240;51.096;5.878;2023-02-15T08:39:17;7.29;-6.00
67358;HTU21D;54240;51.096;5.878;2023-02-15T08:41:45;7.31;-6.00
67358;HTU21D;54240;51.096;5.878;2023-02-15T08:44:12;7.45;-6.00
67358;HTU21D;54240;51.096;5.878;2023-02-15T08:46:41;7.72;-6.00
67358;HTU21D;54240;51.096;5.878;2023-02-15T08:49:08;8.00;-6.00
67358;HTU21D;54240;51.096;5.878;2023-02-15T08:51:37;8.17;-6.00
67358;HTU21D;54240;51.096;5.878;2023-02-15T08:54:07;8.27;-6.00
67358;HTU21D;54240;51.096;5.878;2023-02-15T08:56:36;8.31;-6.00
67358;HTU21D;54240;51.096;5.878;2023-02-15T08:59:05;8.32;-6.00
67358;HTU21D;54240;51.096;5.878;2023-02-15T09:01:33;8.57;-6.00
67358;HTU21D;54240;51.096;5.878;2023-02-15T09:04:01;8.87;-6.00
67358;HTU21D;54240;51.096;5.878;2023-02-15T09:06:28;8.95;-6.00
67358;HTU21D;54240;51.096;5.878;2023-02-15T09:08:55;9.08;-6.00
67358;HTU21D;54240;51.096;5.878;2023-02-15T09:11:24;9.14;-6.00
67358;HTU21D;54240;51.096;5.878;2023-02-15T09:13:58;9.12;-6.00
67358;HTU21D;54240;51.096;5.878;2023-02-15T09:16:27;9.39;-6.00
67358;HTU21D;54240;51.096;5.878;2023-02-15T09:18:54;9.69;-6.00
67358;HTU21D;54240;51.096;5.878;2023-02-15T09:21:24;10.08;-6.00
67358;HTU21D;54240;51.096;5.878;2023-02-15T09:23:55;10.43;-6.00
67358;HTU21D;54240;51.096;5.878;2023-02-15T09:26:23;10.46;-6.00
67358;HTU21D;54240;51.096;5.878;2023-02-15T09:28:55;10.53;-6.00
67358;HTU21D;54240;51.096;5.878;2023-02-15T09:31:24;10.77;-6.00
67358;HTU21D;54240;51.096;5.878;2023-02-15T09:33:51;10.98;-6.00
67358;HTU21D;54240;51.096;5.878;2023-02-15T09:36:26;11.08;-6.00
67358;HTU21D;54240;51.096;5.878;2023-02-15T09:38:58;11.09;-6.00
67358;HTU21D;54240;51.096;5.878;2023-02-15T10:01:28;12.02;-6.00
67358;HTU21D;54240;51.096;5.878;2023-02-15T10:07:17;12.59;-6.00
67358;HTU21D;54240;51.096;5.878;2023-02-15T10:18:06;13.69;-6.00
67358;HTU21D;54240;51.096;5.878;2023-02-15T10:20:48;13.78;-6.00
67358;HTU21D;54240;51.096;5.878;2023-02-15T10:39:38;15.12;-6.00
67358;HTU21D;54240;51.096;5.878;2023-02-15T10:45:24;15.38;-6.00
67358;HTU21D;54240;51.096;5.878;2023-02-15T10:50:58;16.12;-6.00
67358;HTU21D;54240;51.096;5.878;2023-02-15T11:01:23;17.41;-6.00
67358;HTU21D;54240;51.096;5.878;2023-02-15T11:04:14;17.77;-6.00
67358;HTU21D;54240;51.096;5.878;2023-02-15T11:06:53;17.81;-6.00
67358;HTU21D;54240;51.096;5.878;2023-02-15T11:09:24;17.62;-6.00
67358;HTU21D;54240;51.096;5.878;2023-02-15T11:11:53;17.34;-6.00
67358;HTU21D;54240;51.096;5.878;2023-02-15T11:14:39;17.28;-6.00
67358;HTU21D;54240;51.096;5.878;2023-02-15T11:17:16;17.31;-6.00
67358;HTU21D;54240;51.096;5.878;2023-02-15T11:19:56;17.69;-6.00
67358;HTU21D;54240;51.096;5.878;2023-02-15T11:22:24;18.19;-6.00
67358;HTU21D;54240;51.096;5.878;2023-02-15T11:24:51;18.54;-6.00
67358;HTU21D;54240;51.096;5.878;2023-02-15T11:27:23;18.98;-6.00
67358;HTU21D;54240;51.096;5.878;2023-02-15T11:30:19;19.13;-6.00
67358;HTU21D;54240;51.096;5.878;2023-02-15T11:32:48;19.36;-6.00
67358;HTU21D;54240;51.096;5.878;2023-02-15T11:35:36;19.84;-6.00
67358;HTU21D;54240;51.096;5.878;2023-02-15T11:38:22;20.55;-6.00
67358;HTU21D;54240;51.096;5.878;2023-02-15T11:40:55;21.21;-6.00
67358;HTU21D;54240;51.096;5.878;2023-02-15T11:43:33;21.73;-6.00
67358;HTU21D;54240;51.096;5.878;2023-02-15T11:46:01;22.35;-6.00
67358;HTU21D;54240;51.096;5.878;2023-02-15T11:48:30;22.53;-6.00
67358;HTU21D;54240;51.096;5.878;2023-02-15T11:50:56;22.69;-6.00
67358;HTU21D;54240;51.096;5.878;2023-02-15T11:53:23;22.40;-6.00
67358;HTU21D;54240;51.096;5.878;2023-02-15T11:55:54;22.01;-6.00
67358;HTU21D;54240;51.096;5.878;2023-02-15T12:04:04;20.65;-6.00
67358;HTU21D;54240;51.096;5.878;2023-02-15T12:06:34;20.10;-6.00
67358;HTU21D;54240;51.096;5.878;2023-02-15T12:11:52;20.04;-6.00
67358;HTU21D;54240;51.096;5.878;2023-02-15T12:14:18;20.19;-6.00
67358;HTU21D;54240;51.096;5.878;2023-02-15T12:16:50;20.10;-6.00
67358;HTU21D;54240;51.096;5.878;2023-02-15T12:19:39;19.91;-6.00
67358;HTU21D;54240;51.096;5.878;2023-02-15T12:24:54;20.45;-6.00
67358;HTU21D;54240;51.096;5.878;2023-02-15T12:27:28;20.65;-6.00
67358;HTU21D;54240;51.096;5.878;2023-02-15T12:30:00;20.65;-6.00
67358;HTU21D;54240;51.096;5.878;2023-02-15T12:32:31;20.58;-6.00
67358;HTU21D;54240;51.096;5.878;2023-02-15T12:35:15;20.69;-6.00
67358;HTU21D;54240;51.096;5.878;2023-02-15T12:37:55;20.77;-6.00
67358;HTU21D;54240;51.096;5.878;2023-02-15T12:40:25;20.55;-6.00
67358;HTU21D;54240;51.096;5.878;2023-02-15T12:42:54;19.63;-6.00
67358;HTU21D;54240;51.096;5.878;2023-02-15T12:45:31;19.38;-6.00
67358;HTU21D;54240;51.096;5.878;2023-02-15T12:48:17;19.02;-6.00
67358;HTU21D;54240;51.096;5.878;2023-02-15T12:50:49;18.92;-6.00
67358;HTU21D;54240;51.096;5.878;2023-02-15T12:53:22;18.69;-6.00
67358;HTU21D;54240;51.096;5.878;2023-02-15T12:56:01;18.17;-6.00
67358;HTU21D;54240;51.096;5.878;2023-02-15T12:58:41;17.83;-6.00
67358;HTU21D;54240;51.096;5.878;2023-02-15T13:01:18;17.72;-6.00
67358;HTU21D;54240;51.096;5.878;2023-02-15T13:04:03;17.53;-6.00
67358;HTU21D;54240;51.096;5.878;2023-02-15T13:06:34;17.63;-6.00
67358;HTU21D;54240;51.096;5.878;2023-02-15T13:09:15;17.77;-6.00
67358;HTU21D;54240;51.096;5.878;2023-02-15T13:11:44;17.41;-6.00
67358;HTU21D;54240;51.096;5.878;2023-02-15T13:14:28;17.56;-6.00
67358;HTU21D;54240;51.096;5.878;2023-02-15T13:17:00;17.59;-6.00
67358;HTU21D;54240;51.096;5.878;2023-02-15T13:19:44;17.56;-6.00
67358;HTU21D;54240;51.096;5.878;2023-02-15T13:22:26;17.56;-6.00
67358;HTU21D;54240;51.096;5.878;2023-02-15T13:24:58;17.53;-6.00
67358;HTU21D;54240;51.096;5.878;2023-02-15T13:27:35;17.50;-6.00
67358;HTU21D;54240;51.096;5.878;2023-02-15T13:32:56;17.18;-6.00
67358;HTU21D;54240;51.096;5.878;2023-02-15T13:35:28;17.17;-6.00
67358;HTU21D;54240;51.096;5.878;2023-02-15T13:38:01;17.19;-6.00
67358;HTU21D;54240;51.096;5.878;2023-02-15T13:40:51;16.90;-6.00
67358;HTU21D;54240;51.096;5.878;2023-02-15T14:00:29;16.64;-6.00
67358;HTU21D;54240;51.096;5.878;2023-02-15T14:09:11;16.46;-6.00
67358;HTU21D;54240;51.096;5.878;2023-02-15T14:11:44;16.48;-6.00
67358;HTU21D;54240;51.096;5.878;2023-02-15T14:20:01;16.80;-6.00
67358;HTU21D;54240;51.096;5.878;2023-02-15T14:22:44;16.82;-6.00
67358;HTU21D;54240;51.096;5.878;2023-02-15T14:25:28;16.71;-6.00
67358;HTU21D;54240;51.096;5.878;2023-02-15T14:28:16;16.71;-6.00
67358;HTU21D;54240;51.096;5.878;2023-02-15T14:30:48;16.65;-6.00
67358;HTU21D;54240;51.096;5.878;2023-02-15T14:35:41;16.51;-6.00
67358;HTU21D;54240;51.096;5.878;2023-02-15T14:44:13;16.50;-6.00
67358;HTU21D;54240;51.096;5.878;2023-02-15T14:47:39;16.57;-6.00
67358;HTU21D;54240;51.096;5.878;2023-02-15T14:49:46;16.51;-6.00
67358;HTU21D;54240;51.096;5.878;2023-02-15T14:52:12;16.30;-6.00
67358;HTU21D;54240;51.096;5.878;2023-02-15T14:57:20;16.12;-6.00
67358;HTU21D;54240;51.096;5.878;2023-02-15T14:59:55;15.96;-6.00
67358;HTU21D;54240;51.096;5.878;2023-02-15T15:02:25;15.87;-6.00
67358;HTU21D;54240;51.096;5.878;2023-02-15T15:07:26;15.61;-6.00
67358;HTU21D;54240;51.096;5.878;2023-02-15T15:12:53;15.44;-6.00
67358;HTU21D;54240;51.096;5.878;2023-02-15T15:18:04;15.44;-6.00
67358;HTU21D;54240;51.096;5.878;2023-02-15T15:20:43;15.46;-6.00
67358;HTU21D;54240;51.096;5.878;2023-02-15T15:25:56;15.28;-6.00
67358;HTU21D;54240;51.096;5.878;2023-02-15T15:50:17;14.80;-6.00
67358;HTU21D;54240;51.096;5.878;2023-02-15T15:52:48;14.72;-6.00
67358;HTU21D;54240;51.096;5.878;2023-02-15T15:55:24;14.65;-6.00
67358;HTU21D;54240;51.096;5.878;2023-02-15T15:57:54;14.60;-6.00
67358;HTU21D;54240;51.096;5.878;2023-02-15T16:02:54;14.44;-6.00
67358;HTU21D;54240;51.096;5.878;2023-02-15T16:05:21;14.32;-6.00
67358;HTU21D;54240;51.096;5.878;2023-02-15T16:07:48;14.28;-6.00
67358;HTU21D;54240;51.096;5.878;2023-02-15T16:10:24;14.23;-6.00
67358;HTU21D;54240;51.096;5.878;2023-02-15T16:12:52;14.20;-6.00
67358;HTU21D;54240;51.096;5.878;2023-02-15T16:15:35;14.18;-6.00
67358;HTU21D;54240;51.096;5.878;2023-02-15T16:18:02;14.12;-6.00
67358;HTU21D;54240;51.096;5.878;2023-02-15T16:20:34;14.05;-6.00
67358;HTU21D;54240;51.096;5.878;2023-02-15T16:28:17;13.82;-6.00
67358;HTU21D;54240;51.096;5.878;2023-02-15T16:31:03;13.77;-6.00
67358;HTU21D;54240;51.096;5.878;2023-02-15T16:33:38;13.69;-6.00
67358;HTU21D;54240;51.096;5.878;2023-02-15T16:36:09;13.63;-6.00
67358;HTU21D;54240;51.096;5.878;2023-02-15T16:41:11;13.46;-6.00
67358;HTU21D;54240;51.096;5.878;2023-02-15T16:43:40;13.39;-6.00
67358;HTU21D;54240;51.096;5.878;2023-02-15T16:46:35;13.33;-6.00
67358;HTU21D;54240;51.096;5.878;2023-02-15T16:49:03;13.22;-6.00
67358;HTU21D;54240;51.096;5.878;2023-02-15T16:51:33;13.11;-6.00
67358;HTU21D;54240;51.096;5.878;2023-02-15T16:54:08;13.07;-6.00
67358;HTU21D;54240;51.096;5.878;2023-02-15T16:56:39;13.04;-6.00
67358;HTU21D;54240;51.096;5.878;2023-02-15T16:59:30;12.93;-6.00
67358;HTU21D;54240;51.096;5.878;2023-02-15T17:01:58;12.80;-6.00
67358;HTU21D;54240;51.096;5.878;2023-02-15T17:04:31;12.72;-6.00
67358;HTU21D;54240;51.096;5.878;2023-02-15T17:07:15;12.63;-6.00
67358;HTU21D;54240;51.096;5.878;2023-02-15T17:09:53;12.53;-6.00
67358;HTU21D;54240;51.096;5.878;2023-02-15T17:12:56;12.42;-6.00
67358;HTU21D;54240;51.096;5.878;2023-02-15T17:15:36;12.36;-6.00
67358;HTU21D;54240;51.096;5.878;2023-02-15T17:20:33;12.32;-6.00
67358;HTU21D;54240;51.096;5.878;2023-02-15T17:22:59;12.32;-6.00
67358;HTU21D;54240;51.096;5.878;2023-02-15T17:25:39;12.28;-6.00
67358;HTU21D;54240;51.096;5.878;2023-02-15T17:28:19;12.27;-6.00
67358;HTU21D;54240;51.096;5.878;2023-02-15T17:30:47;12.23;-6.00
67358;HTU21D;54240;51.096;5.878;2023-02-15T17:33:24;12.21;-6.00
67358;HTU21D;54240;51.096;5.878;2023-02-15T17:38:38;12.02;-6.00
67358;HTU21D;54240;51.096;5.878;2023-02-15T17:41:05;11.91;-6.00
67358;HTU21D;54240;51.096;5.878;2023-02-15T17:43:30;11.78;-6.00
67358;HTU21D;54240;51.096;5.878;2023-02-15T17:45:57;11.67;-6.00
67358;HTU21D;54240;51.096;5.878;2023-02-15T17:48:36;11.54;-6.00
67358;HTU21D;54240;51.096;5.878;2023-02-15T17:51:05;11.45;-6.00
67358;HTU21D;54240;51.096;5.878;2023-02-15T17:53:32;11.33;-6.00
67358;HTU21D;54240;51.096;5.878;2023-02-15T17:55:59;11.20;-6.00
67358;HTU21D;54240;51.096;5.878;2023-02-15T17:58:24;11.11;-6.00
67358;HTU21D;54240;51.096;5.878;2023-02-15T18:00:54;11.02;-6.00
67358;HTU21D;54240;51.096;5.878;2023-02-15T18:03:48;10.93;-6.00
67358;HTU21D;54240;51.096;5.878;2023-02-15T18:06:35;10.86;-6.00
67358;HTU21D;54240;51.096;5.878;2023-02-15T18:09:22;10.79;-6.00
67358;HTU21D;54240;51.096;5.878;2023-02-15T18:12:23;10.71;-6.00
67358;HTU21D;54240;51.096;5.878;2023-02-15T18:14:50;10.64;-6.00
67358;HTU21D;54240;51.096;5.878;2023-02-15T18:17:17;10.60;-6.00
67358;HTU21D;54240;51.096;5.878;2023-02-15T18:19:45;10.55;-6.00
67358;HTU21D;54240;51.096;5.878;2023-02-15T18:22:15;10.55;-6.00
67358;HTU21D;54240;51.096;5.878;2023-02-15T18:24:42;10.53;-6.00
67358;HTU21D;54240;51.096;5.878;2023-02-15T18:27:14;10.51;-6.00
67358;HTU21D;54240;51.096;5.878;2023-02-15T18:29:40;10.49;-6.00
67358;HTU21D;54240;51.096;5.878;2023-02-15T18:32:12;10.44;-6.00
67358;HTU21D;54240;51.096;5.878;2023-02-15T18:34:42;10.43;-6.00
67358;HTU21D;54240;51.096;5.878;2023-02-15T18:37:21;10.38;-6.00
67358;HTU21D;54240;51.096;5.878;2023-02-15T18:39:49;10.29;-6.00
67358;HTU21D;54240;51.096;5.878;2023-02-15T18:42:25;10.23;-6.00
67358;HTU21D;54240;51.096;5.878;2023-02-15T18:44:57;10.16;-6.00
67358;HTU21D;54240;51.096;5.878;2023-02-15T18:47:24;10.13;-6.00
67358;HTU21D;54240;51.096;5.878;2023-02-15T18:49:50;10.06;-6.00
67358;HTU21D;54240;51.096;5.878;2023-02-15T18:52:23;10.00;-6.00
67358;HTU21D;54240;51.096;5.878;2023-02-15T18:54:54;10.03;-6.00
67358;HTU21D;54240;51.096;5.878;2023-02-15T18:57:21;10.03;-6.00
67358;HTU21D;54240;51.096;5.878;2023-02-15T18:59:47;10.07;-6.00
67358;HTU21D;54240;51.096;5.878;2023-02-15T19:02:16;10.12;-6.00